Terminal Aerodrome Forecast
Issued by NWS Sioux Falls, SD

Home | Current Version | Previous Version | Graphics & Text | Print | Product List | Glossary On
Versions: 1 2 3 4 5 6 7 8 9 10 11 12 13 14 15 16
000
FTUS43 KFSD 180051 AAA
TAFHON
TAF AMD
KHON 180051Z 1801/1824 35008KT P6SM BKN030
      TEMPO 1801/1805 SCT030
     FM180500 36006KT P6SM OVC015
     FM181600 16008KT P6SM BKN025
     FM181900 16009KT P6SM SCT025=

USA.gov is the U.S. government's official web portal to all federal, state and local government web resources and services.